createdAt,value
2018-12-10T00:01:20.906Z,6.36
2018-12-10T00:03:51.765Z,6.34
2018-12-10T00:06:20.257Z,6.29
2018-12-10T00:08:48.712Z,6.28
2018-12-10T00:11:17.195Z,6.27
2018-12-10T00:13:45.684Z,6.27
2018-12-10T00:16:14.088Z,6.31
2018-12-10T00:18:42.568Z,6.19
2018-12-10T00:21:10.997Z,6.14
2018-12-10T00:23:39.477Z,6.13
2018-12-10T00:26:07.944Z,6.09
2018-12-10T00:28:36.344Z,6.09
2018-12-10T00:31:04.764Z,6.09
2018-12-10T00:33:33.183Z,6.07
2018-12-10T00:36:01.610Z,6.03
2018-12-10T00:38:30.008Z,6.06
2018-12-10T00:40:58.542Z,6.05
2018-12-10T00:43:27.040Z,6.01
2018-12-10T00:45:55.455Z,5.99
2018-12-10T00:48:23.860Z,5.91
2018-12-10T00:50:52.343Z,5.86
2018-12-10T00:53:20.786Z,5.82
2018-12-10T00:55:49.215Z,5.82
2018-12-10T00:58:18.740Z,5.79
2018-12-10T01:00:47.161Z,5.78
2018-12-10T01:03:15.569Z,5.74
2018-12-10T01:05:43.989Z,5.71
2018-12-10T01:08:12.467Z,5.71
2018-12-10T01:10:40.999Z,5.67
2018-12-10T01:13:09.417Z,5.66
2018-12-10T01:15:37.859Z,5.70
2018-12-10T01:18:06.303Z,5.71
2018-12-10T01:20:34.704Z,5.70
2018-12-10T01:23:03.083Z,5.72
2018-12-10T01:25:31.539Z,5.76
2018-12-10T01:28:00.028Z,5.76
2018-12-10T01:30:28.436Z,5.74
2018-12-10T01:32:56.823Z,5.66
2018-12-10T01:35:25.291Z,5.63
2018-12-10T01:37:53.787Z,5.60
2018-12-10T01:40:22.199Z,5.59
2018-12-10T01:42:50.624Z,5.60
2018-12-10T01:45:19.174Z,5.64
2018-12-10T01:47:47.691Z,5.66
2018-12-10T01:50:16.304Z,5.69
2018-12-10T01:52:44.791Z,5.71
2018-12-10T01:55:13.196Z,5.68
2018-12-10T01:57:41.584Z,5.64
2018-12-10T02:00:10.088Z,5.64
2018-12-10T02:02:38.764Z,5.64
2018-12-10T02:05:07.136Z,5.65
2018-12-10T02:07:35.592Z,5.68
2018-12-10T02:10:04.251Z,5.65
2018-12-10T02:12:32.696Z,5.66
2018-12-10T02:15:01.104Z,5.65
2018-12-10T02:17:29.645Z,5.65
2018-12-10T02:19:58.052Z,5.65
2018-12-10T02:22:26.474Z,5.66
2018-12-10T02:24:54.911Z,5.69
2018-12-10T02:27:23.349Z,5.68
2018-12-10T02:29:51.796Z,5.71
2018-12-10T02:32:20.253Z,5.69
2018-12-10T02:34:48.735Z,5.66
2018-12-10T02:37:17.224Z,5.53
2018-12-10T02:39:45.608Z,5.34
2018-12-10T02:42:14.036Z,5.30
2018-12-10T02:44:42.448Z,5.30
2018-12-10T02:47:10.907Z,5.30
2018-12-10T02:49:39.317Z,5.29
2018-12-10T02:52:07.801Z,5.30
2018-12-10T02:54:36.230Z,5.35
2018-12-10T02:57:04.795Z,5.33
2018-12-10T02:59:33.304Z,5.35
2018-12-10T03:02:01.777Z,5.37
2018-12-10T03:04:30.153Z,5.39
2018-12-10T03:06:58.579Z,5.39
2018-12-10T03:09:27.019Z,5.38
2018-12-10T03:11:55.483Z,5.41
2018-12-10T03:14:23.892Z,5.44
2018-12-10T03:16:52.340Z,5.45
2018-12-10T03:19:20.996Z,5.46
2018-12-10T03:21:49.478Z,5.44
2018-12-10T03:24:17.872Z,5.43
2018-12-10T03:26:46.271Z,5.40
2018-12-10T03:29:14.715Z,5.30
2018-12-10T03:31:43.385Z,5.17
2018-12-10T03:34:11.823Z,5.07
2018-12-10T03:36:40.240Z,5.03
2018-12-10T03:39:08.646Z,4.98
2018-12-10T03:41:37.099Z,4.97
2018-12-10T03:44:05.507Z,4.98
2018-12-10T03:46:33.944Z,5.02
2018-12-10T03:49:02.422Z,5.04
2018-12-10T03:51:30.898Z,5.05
2018-12-10T03:53:59.348Z,5.05
2018-12-10T03:56:27.768Z,5.04
2018-12-10T03:58:56.195Z,5.02
2018-12-10T04:01:24.672Z,5.06
2018-12-10T04:03:53.209Z,5.10
2018-12-10T04:06:21.616Z,5.14
2018-12-10T04:08:50.120Z,5.18
2018-12-10T04:11:18.516Z,5.18
2018-12-10T04:13:47.092Z,5.20
2018-12-10T04:16:15.535Z,5.22
2018-12-10T04:18:43.921Z,5.25
2018-12-10T04:21:12.307Z,5.28
2018-12-10T04:23:40.727Z,5.29
2018-12-10T04:26:09.128Z,5.30
2018-12-10T04:28:37.516Z,5.27
2018-12-10T04:31:05.970Z,5.27
2018-12-10T04:33:34.379Z,5.25
2018-12-10T04:36:02.783Z,5.24
2018-12-10T04:38:31.217Z,5.24
2018-12-10T04:40:59.649Z,5.24
2018-12-10T04:43:28.080Z,5.27
2018-12-10T04:45:56.461Z,5.28
2018-12-10T04:48:24.871Z,5.28
2018-12-10T04:50:53.245Z,5.29
2018-12-10T04:53:21.674Z,5.31
2018-12-10T04:55:50.123Z,5.27
2018-12-10T04:58:18.540Z,5.23
2018-12-10T05:00:47.031Z,5.20
2018-12-10T05:03:19.612Z,5.16
2018-12-10T05:05:48.011Z,5.11
2018-12-10T05:08:16.424Z,5.11
2018-12-10T05:10:44.799Z,5.13
2018-12-10T05:13:13.211Z,5.16
2018-12-10T05:15:41.592Z,5.17
2018-12-10T05:18:10.012Z,5.18
2018-12-10T05:20:38.400Z,5.16
2018-12-10T05:23:06.805Z,5.16
2018-12-10T05:25:35.181Z,5.13
2018-12-10T05:28:03.644Z,5.02
2018-12-10T05:30:32.044Z,4.90
2018-12-10T05:33:00.447Z,4.86
2018-12-10T05:35:28.831Z,4.83
2018-12-10T05:37:57.231Z,4.81
2018-12-10T05:40:25.661Z,4.82
2018-12-10T05:42:54.160Z,4.81
2018-12-10T05:45:22.556Z,4.80
2018-12-10T05:47:50.963Z,4.78
2018-12-10T05:50:19.390Z,4.75
2018-12-10T05:52:47.787Z,4.73
2018-12-10T05:55:16.165Z,4.70
2018-12-10T05:57:44.648Z,4.64
2018-12-10T06:00:13.085Z,4.64
2018-12-10T06:02:41.487Z,4.62
2018-12-10T06:05:09.902Z,4.60
2018-12-10T06:07:41.563Z,4.64
2018-12-10T06:10:09.991Z,4.64
2018-12-10T06:12:38.406Z,4.68
2018-12-10T06:15:06.952Z,4.70
2018-12-10T06:17:35.415Z,4.73
2018-12-10T06:20:04.052Z,4.77
2018-12-10T06:22:32.544Z,4.82
2018-12-10T06:25:01.073Z,4.87
2018-12-10T06:27:29.485Z,4.86
2018-12-10T06:29:57.903Z,4.85
2018-12-10T06:32:26.300Z,4.87
2018-12-10T06:34:54.740Z,4.87
2018-12-10T06:37:23.332Z,4.85
2018-12-10T06:39:51.776Z,4.78
2018-12-10T06:42:20.190Z,4.75
2018-12-10T06:44:48.640Z,4.73
2018-12-10T06:47:17.208Z,4.73
2018-12-10T06:49:45.630Z,4.73
2018-12-10T06:52:14.052Z,4.71
2018-12-10T06:54:42.476Z,4.71
2018-12-10T06:57:11.372Z,4.72
2018-12-10T06:59:39.774Z,4.70
2018-12-10T07:02:08.164Z,4.69
2018-12-10T07:04:36.570Z,4.69
2018-12-10T07:07:05.010Z,4.68
2018-12-10T07:09:33.519Z,4.69
2018-12-10T07:12:01.944Z,4.71
2018-12-10T07:14:30.385Z,4.70
2018-12-10T07:16:58.757Z,4.67
2018-12-10T07:19:27.239Z,4.67
2018-12-10T07:21:55.645Z,4.64
2018-12-10T07:24:24.095Z,4.64
2018-12-10T07:26:52.456Z,4.68
2018-12-10T07:29:20.897Z,4.71
2018-12-10T07:31:49.350Z,4.72
2018-12-10T07:34:18.068Z,4.74
2018-12-10T07:36:46.469Z,4.75
2018-12-10T07:39:14.947Z,4.76
2018-12-10T07:41:43.654Z,4.76
2018-12-10T07:44:12.318Z,4.78
2018-12-10T07:46:40.696Z,4.78
2018-12-10T07:49:09.162Z,4.78
2018-12-10T07:51:37.573Z,4.80
2018-12-10T07:54:06.023Z,4.78
2018-12-10T07:56:34.464Z,4.75
2018-12-10T07:59:02.867Z,4.77
2018-12-10T08:01:31.387Z,4.79
2018-12-10T08:03:59.809Z,4.82
2018-12-10T08:06:28.204Z,4.83
2018-12-10T08:08:56.581Z,4.81
2018-12-10T08:11:25.005Z,4.84
2018-12-10T08:13:53.383Z,4.87
2018-12-10T08:16:22.225Z,4.88
2018-12-10T08:18:50.653Z,4.87
2018-12-10T08:21:19.071Z,4.86
2018-12-10T08:23:47.439Z,4.86
2018-12-10T08:26:15.837Z,4.86
2018-12-10T08:28:44.230Z,4.88
2018-12-10T08:31:12.642Z,4.86
2018-12-10T08:33:41.159Z,4.90
2018-12-10T08:36:09.561Z,4.95
2018-12-10T08:38:37.933Z,5.01
2018-12-10T08:41:06.371Z,5.04
2018-12-10T08:43:34.764Z,5.06
2018-12-10T08:46:03.185Z,5.06
2018-12-10T08:48:31.692Z,5.10
2018-12-10T08:51:00.115Z,5.08
2018-12-10T08:53:28.550Z,5.15
2018-12-10T08:55:56.966Z,5.21
2018-12-10T08:58:25.427Z,5.18
2018-12-10T09:00:53.867Z,5.22
2018-12-10T09:03:22.223Z,5.30
2018-12-10T09:05:50.685Z,5.23
2018-12-10T09:08:19.100Z,5.23
2018-12-10T09:10:47.496Z,5.21
2018-12-10T09:13:15.921Z,5.15
2018-12-10T09:15:44.410Z,5.08
2018-12-10T09:18:12.820Z,5.00
2018-12-10T09:20:41.295Z,4.99
2018-12-10T09:23:09.732Z,5.02
2018-12-10T09:25:38.160Z,5.10
2018-12-10T09:28:06.711Z,5.17
2018-12-10T09:30:35.171Z,5.20
2018-12-10T09:33:03.576Z,5.24
2018-12-10T09:35:31.991Z,5.33
2018-12-10T09:38:00.420Z,5.41
2018-12-10T09:40:28.982Z,5.45
2018-12-10T09:42:57.401Z,5.48
2018-12-10T09:45:25.834Z,5.48
2018-12-10T09:47:54.251Z,5.56
2018-12-10T09:50:22.755Z,5.65
2018-12-10T09:52:51.127Z,5.74
2018-12-10T09:55:19.570Z,5.80
2018-12-10T09:57:47.937Z,5.79
2018-12-10T10:00:16.588Z,5.74
2018-12-10T10:02:45.075Z,5.58
2018-12-10T10:05:13.594Z,5.24
2018-12-10T10:07:42.019Z,5.18
2018-12-10T10:10:10.545Z,5.17
2018-12-10T10:12:39.096Z,5.19
2018-12-10T10:15:07.650Z,5.29
2018-12-10T10:17:36.102Z,5.40
2018-12-10T10:20:04.835Z,5.48
2018-12-10T10:22:33.303Z,5.53
2018-12-10T10:25:01.715Z,5.51
2018-12-10T10:27:30.144Z,5.50
2018-12-10T10:29:58.524Z,5.48
2018-12-10T10:32:26.955Z,5.51
2018-12-10T10:34:55.381Z,5.49
2018-12-10T10:37:23.935Z,5.47
2018-12-10T10:39:52.571Z,5.47
2018-12-10T10:42:21.015Z,5.55
2018-12-10T10:44:49.525Z,5.63
2018-12-10T10:47:17.940Z,5.76
2018-12-10T10:49:46.399Z,5.82
2018-12-10T10:52:14.800Z,5.81
2018-12-10T10:54:43.223Z,5.68
2018-12-10T10:57:11.800Z,5.48
2018-12-10T10:59:40.192Z,5.44
2018-12-10T11:02:13.819Z,5.46
2018-12-10T11:04:42.227Z,5.49
2018-12-10T11:07:10.831Z,5.63
2018-12-10T11:09:39.279Z,5.60
2018-12-10T11:12:07.846Z,5.62
2018-12-10T11:14:36.230Z,5.69
2018-12-10T11:17:04.767Z,5.75
2018-12-10T11:19:33.200Z,5.82
2018-12-10T11:22:01.740Z,5.87
2018-12-10T11:24:30.126Z,5.89
2018-12-10T11:26:58.676Z,5.91
2018-12-10T11:29:27.104Z,5.92
2018-12-10T11:31:55.547Z,6.03
2018-12-10T11:34:23.973Z,6.08
2018-12-10T11:36:52.485Z,6.18
2018-12-10T11:39:20.872Z,6.29
2018-12-10T11:41:49.259Z,6.40
2018-12-10T11:44:17.676Z,6.46
2018-12-10T11:46:46.116Z,6.51
2018-12-10T11:49:14.505Z,6.64
2018-12-10T11:51:42.951Z,6.68
2018-12-10T11:54:11.443Z,6.70
2018-12-10T11:56:39.867Z,6.81
2018-12-10T11:59:08.250Z,6.91
2018-12-10T12:01:36.661Z,6.90
2018-12-10T12:04:05.105Z,6.87
2018-12-10T12:06:33.475Z,6.89
2018-12-10T12:09:01.900Z,6.95
2018-12-10T12:11:30.327Z,6.98
2018-12-10T12:13:58.742Z,6.94
2018-12-10T12:16:27.117Z,6.95
2018-12-10T12:18:57.589Z,6.96
2018-12-10T12:21:26.015Z,7.02
2018-12-10T12:23:54.488Z,7.04
2018-12-10T12:26:22.924Z,6.90
2018-12-10T12:28:51.358Z,6.85
2018-12-10T12:31:19.744Z,6.74
2018-12-10T12:33:48.142Z,6.66
2018-12-10T12:36:16.527Z,6.58
2018-12-10T12:38:45.007Z,6.56
2018-12-10T12:41:14.919Z,6.53
2018-12-10T12:43:43.547Z,6.45
2018-12-10T12:46:11.948Z,6.40
2018-12-10T12:48:40.404Z,6.36
2018-12-10T12:51:08.784Z,6.27
2018-12-10T12:53:37.215Z,6.15
2018-12-10T12:56:05.643Z,6.00
2018-12-10T12:58:34.132Z,5.68
2018-12-10T13:01:02.519Z,5.02
2018-12-10T13:03:30.924Z,4.85
2018-12-10T13:06:06.570Z,4.84
2018-12-10T13:08:31.087Z,4.81
2018-12-10T13:10:59.911Z,4.82
2018-12-10T13:13:28.330Z,4.91
2018-12-10T13:15:56.718Z,4.98
2018-12-10T13:18:25.152Z,5.04
2018-12-10T13:20:53.512Z,5.13
2018-12-10T13:23:21.935Z,5.14
2018-12-10T13:25:51.407Z,5.20
2018-12-10T13:28:19.892Z,5.25
2018-12-10T13:30:48.356Z,5.28
2018-12-10T13:33:16.865Z,5.34
2018-12-10T13:35:45.242Z,5.28
2018-12-10T13:38:13.639Z,5.03
2018-12-10T13:40:42.006Z,4.92
2018-12-10T13:43:10.448Z,4.86
2018-12-10T13:45:38.828Z,4.78
2018-12-10T13:48:07.244Z,4.74
2018-12-10T13:50:35.642Z,4.69
2018-12-10T13:53:04.042Z,4.63
2018-12-10T13:55:32.420Z,4.66
2018-12-10T13:58:00.845Z,4.71
2018-12-10T14:00:29.248Z,4.63
2018-12-10T14:03:03.711Z,4.60
2018-12-10T14:05:32.120Z,4.58
2018-12-10T14:08:01.192Z,4.58
2018-12-10T14:10:29.646Z,4.65
2018-12-10T14:12:58.102Z,4.61
2018-12-10T14:15:26.589Z,4.64
2018-12-10T14:17:54.963Z,4.65
2018-12-10T14:20:23.500Z,4.62
2018-12-10T14:22:51.912Z,4.61
2018-12-10T14:25:29.181Z,4.63
2018-12-10T14:27:57.701Z,4.58
2018-12-10T14:30:26.484Z,4.54
2018-12-10T14:32:55.548Z,4.51
2018-12-10T14:35:23.963Z,4.55
2018-12-10T14:37:52.369Z,4.57
2018-12-10T14:40:20.924Z,4.60
2018-12-10T14:42:55.291Z,4.63
2018-12-10T14:45:23.993Z,4.65
2018-12-10T14:47:53.588Z,4.69
2018-12-10T14:50:22.244Z,4.75
2018-12-10T14:52:50.781Z,4.81
2018-12-10T14:55:19.276Z,4.87
2018-12-10T14:57:47.716Z,4.93
2018-12-10T15:00:16.163Z,4.95
2018-12-10T15:02:44.614Z,4.94
2018-12-10T15:05:13.197Z,4.95
2018-12-10T15:07:41.608Z,4.92
2018-12-10T15:10:11.311Z,4.93
2018-12-10T15:12:39.758Z,4.95
2018-12-10T15:15:10.000Z,4.98
2018-12-10T15:17:38.476Z,4.99
2018-12-10T15:20:11.484Z,5.02
2018-12-10T15:22:40.529Z,5.01
2018-12-10T15:25:09.842Z,5.03
2018-12-10T15:27:38.203Z,5.07
2018-12-10T15:30:13.293Z,5.12
2018-12-10T15:32:48.012Z,5.14
2018-12-10T15:35:16.442Z,5.16
2018-12-10T15:40:40.276Z,5.17
2018-12-10T15:43:08.701Z,5.22
2018-12-10T15:45:37.187Z,5.18
2018-12-10T15:48:05.615Z,5.07
2018-12-10T15:50:34.012Z,5.04
2018-12-10T15:53:02.408Z,5.01
2018-12-10T15:55:30.812Z,4.97
2018-12-10T15:57:59.346Z,4.97
2018-12-10T16:00:27.739Z,5.00
2018-12-10T16:02:56.119Z,4.99
2018-12-10T16:05:24.595Z,4.97
2018-12-10T16:07:52.983Z,4.95
2018-12-10T16:10:22.566Z,4.91
2018-12-10T16:12:50.963Z,4.86
2018-12-10T16:15:19.367Z,4.85
2018-12-10T16:17:47.918Z,4.83
2018-12-10T16:20:16.525Z,4.83
2018-12-10T16:22:44.923Z,4.86
2018-12-10T16:25:13.573Z,4.90
2018-12-10T16:27:42.206Z,4.79
2018-12-10T16:30:10.871Z,4.39
2018-12-10T16:32:39.285Z,3.98
2018-12-10T16:35:07.817Z,3.88
2018-12-10T16:37:36.239Z,3.87
2018-12-10T16:40:05.799Z,3.89
2018-12-10T16:42:34.199Z,3.88
2018-12-10T16:45:02.615Z,3.85
2018-12-10T16:47:31.208Z,3.84
2018-12-10T16:49:59.680Z,3.83
2018-12-10T16:52:28.098Z,3.82
2018-12-10T16:54:56.516Z,3.79
2018-12-10T16:57:24.920Z,3.83
2018-12-10T16:59:53.335Z,3.84
2018-12-10T17:02:21.747Z,3.88
2018-12-10T17:04:50.276Z,3.93
2018-12-10T17:07:18.752Z,3.96
2018-12-10T17:09:47.168Z,3.97
2018-12-10T17:12:15.687Z,4.00
2018-12-10T17:14:44.948Z,4.01
2018-12-10T17:17:13.347Z,4.05
2018-12-10T17:19:41.892Z,4.08
2018-12-10T17:22:10.595Z,4.11
2018-12-10T17:24:39.072Z,4.14
2018-12-10T17:27:07.588Z,4.14
2018-12-10T17:29:36.033Z,4.18
2018-12-10T17:32:04.476Z,4.22
2018-12-10T17:34:32.860Z,4.23
2018-12-10T17:37:01.371Z,4.28
2018-12-10T17:39:29.833Z,4.27
2018-12-10T17:41:58.251Z,4.24
2018-12-10T17:44:26.776Z,4.25
2018-12-10T17:46:55.187Z,4.22
2018-12-10T17:49:23.737Z,4.24
2018-12-10T17:51:52.136Z,4.26
2018-12-10T17:54:20.769Z,4.27
2018-12-10T17:56:49.286Z,4.26
2018-12-10T17:59:17.763Z,4.27
2018-12-10T18:01:46.232Z,4.21
2018-12-10T18:04:14.656Z,4.20
2018-12-10T18:06:43.065Z,4.20
2018-12-10T18:09:12.500Z,4.18
2018-12-10T18:11:41.188Z,4.15
2018-12-10T18:17:07.182Z,4.23
2018-12-10T18:19:35.805Z,4.27
2018-12-10T18:22:04.656Z,4.24
2018-12-10T18:24:33.289Z,4.24
2018-12-10T18:27:02.010Z,4.26
2018-12-10T18:29:30.626Z,4.20
2018-12-10T18:31:59.432Z,4.20
2018-12-10T18:34:28.000Z,4.18
2018-12-10T18:36:56.688Z,4.13
2018-12-10T18:39:25.260Z,4.14
2018-12-10T18:41:53.922Z,4.16
2018-12-10T18:44:22.666Z,4.22
2018-12-10T18:46:51.457Z,4.21
2018-12-10T18:49:20.131Z,4.24
2018-12-10T18:51:49.016Z,4.26
2018-12-10T18:54:17.844Z,4.26
2018-12-10T18:56:49.735Z,4.24
2018-12-10T18:59:18.532Z,4.20
2018-12-10T19:01:47.272Z,4.16
2018-12-10T19:04:15.945Z,4.14
2018-12-10T19:06:44.653Z,4.12
2018-12-10T19:09:13.628Z,4.11
2018-12-10T19:11:42.292Z,4.09
2018-12-10T19:14:10.706Z,4.07
2018-12-10T19:16:39.160Z,4.05
2018-12-10T19:19:07.644Z,4.01
2018-12-10T19:21:36.190Z,4.00
2018-12-10T19:24:05.066Z,4.03
2018-12-10T19:26:41.384Z,4.00
2018-12-10T19:29:10.053Z,3.98
2018-12-10T19:31:38.812Z,4.00
2018-12-10T19:34:07.449Z,4.00
2018-12-10T19:36:36.159Z,3.98
2018-12-10T19:39:06.896Z,3.96
2018-12-10T19:41:35.699Z,3.91
2018-12-10T19:44:04.320Z,3.89
2018-12-10T19:46:32.898Z,3.88
2018-12-10T19:49:01.300Z,3.84
2018-12-10T19:51:29.920Z,3.81
2018-12-10T19:53:58.379Z,3.78
2018-12-10T19:56:26.772Z,3.73
2018-12-10T19:58:55.190Z,3.69
2018-12-10T20:01:23.765Z,3.72
2018-12-10T20:03:52.227Z,3.72
2018-12-10T20:06:28.168Z,3.68
2018-12-10T20:08:56.589Z,3.72
2018-12-10T20:11:25.106Z,3.70
2018-12-10T20:13:53.619Z,3.68
2018-12-10T20:16:22.150Z,3.67
2018-12-10T20:18:50.791Z,3.70
2018-12-10T20:21:19.248Z,3.66
2018-12-10T20:23:47.974Z,3.65
2018-12-10T20:26:16.544Z,3.68
2018-12-10T20:28:45.137Z,3.66
2018-12-10T20:31:13.683Z,3.71
2018-12-10T20:33:42.731Z,3.71
2018-12-10T20:36:11.346Z,3.70
2018-12-10T20:38:44.165Z,3.71
2018-12-10T20:41:12.571Z,3.66
2018-12-10T20:43:41.038Z,3.65
2018-12-10T20:46:09.530Z,3.67
2018-12-10T20:48:37.988Z,3.68
2018-12-10T20:51:06.574Z,3.70
2018-12-10T20:53:35.052Z,3.70
2018-12-10T20:56:03.555Z,3.72
2018-12-10T20:58:31.952Z,3.74
2018-12-10T21:01:00.419Z,3.76
2018-12-10T21:03:28.871Z,3.80
2018-12-10T21:06:02.581Z,3.85
2018-12-10T21:08:31.059Z,3.90
2018-12-10T21:10:59.584Z,3.95
2018-12-10T21:13:28.036Z,4.00
2018-12-10T21:15:56.590Z,4.06
2018-12-10T21:18:25.176Z,4.08
2018-12-10T21:20:53.745Z,4.11
2018-12-10T21:23:22.492Z,4.14
2018-12-10T21:25:51.092Z,4.15
2018-12-10T21:28:19.835Z,4.18
2018-12-10T21:30:48.380Z,4.21
2018-12-10T21:33:16.974Z,4.27
2018-12-10T21:35:45.536Z,4.26
2018-12-10T21:38:14.157Z,4.27
2018-12-10T21:40:42.888Z,4.29
2018-12-10T21:43:11.569Z,4.32
2018-12-10T21:45:40.139Z,4.35
2018-12-10T21:48:08.897Z,4.38
2018-12-10T21:50:37.786Z,4.40
2018-12-10T21:53:06.550Z,4.41
2018-12-10T21:55:35.308Z,4.42
2018-12-10T21:58:03.972Z,4.40
2018-12-10T22:00:32.661Z,4.41
2018-12-10T22:03:01.358Z,4.42
2018-12-10T22:05:30.094Z,4.42
2018-12-10T22:07:59.015Z,4.42
2018-12-10T22:10:27.832Z,4.43
2018-12-10T22:12:56.469Z,4.46
2018-12-10T22:15:25.157Z,4.47
2018-12-10T22:17:53.839Z,4.49
2018-12-10T22:20:22.506Z,4.49
2018-12-10T22:22:51.163Z,4.49
2018-12-10T22:25:19.854Z,4.50
2018-12-10T22:27:48.490Z,4.49
2018-12-10T22:30:17.128Z,4.52
2018-12-10T22:32:45.967Z,4.54
2018-12-10T22:35:14.546Z,4.54
2018-12-10T22:37:43.217Z,4.53
2018-12-10T22:40:11.928Z,4.53
2018-12-10T22:42:40.467Z,4.52
2018-12-10T22:45:09.206Z,4.53
2018-12-10T22:47:37.872Z,4.49
2018-12-10T22:50:07.427Z,4.52
2018-12-10T22:52:42.605Z,4.49
2018-12-10T22:55:11.226Z,4.46
2018-12-10T22:57:39.880Z,4.46
2018-12-10T23:00:10.424Z,4.48
2018-12-10T23:02:38.942Z,4.49
2018-12-10T23:05:07.725Z,4.52
2018-12-10T23:07:36.483Z,4.54
2018-12-10T23:10:05.784Z,4.55
2018-12-10T23:12:34.364Z,4.56
2018-12-10T23:15:02.820Z,4.57
2018-12-10T23:17:31.456Z,4.58
2018-12-10T23:19:59.873Z,4.62
2018-12-10T23:22:29.144Z,4.60
2018-12-10T23:24:57.923Z,4.49
2018-12-10T23:27:26.804Z,4.44
2018-12-10T23:29:55.991Z,4.45
2018-12-10T23:32:24.552Z,4.46
2018-12-10T23:34:53.427Z,4.46
2018-12-10T23:37:22.079Z,4.47
2018-12-10T23:39:51.061Z,4.50
2018-12-10T23:42:19.888Z,4.50
2018-12-10T23:44:54.788Z,4.45
2018-12-10T23:47:23.508Z,4.44
2018-12-10T23:49:51.953Z,4.41
2018-12-10T23:52:20.496Z,4.42
2018-12-10T23:54:49.012Z,4.44
2018-12-10T23:57:17.620Z,4.42
2018-12-10T23:59:46.137Z,4.42
